sensor_id;sensor_type;location;lat;lon;timestamp;temperature;humidity
41722;DHT22;27407;24.142;-110.310;2024-01-10T00:02:22;20.30;99.90
41722;DHT22;27407;24.142;-110.310;2024-01-10T00:04:49;20.20;99.90
41722;DHT22;27407;24.142;-110.310;2024-01-10T00:07:16;20.30;99.90
41722;DHT22;27407;24.142;-110.310;2024-01-10T00:09:42;20.20;99.90
41722;DHT22;27407;24.142;-110.310;2024-01-10T00:12:09;20.00;99.90
41722;DHT22;27407;24.142;-110.310;2024-01-10T00:14:35;19.90;99.90
41722;DHT22;27407;24.142;-110.310;2024-01-10T00:17:02;20.00;99.90
41722;DHT22;27407;24.142;-110.310;2024-01-10T00:19:29;19.80;99.90
41722;DHT22;27407;24.142;-110.310;2024-01-10T00:21:56;19.60;99.90
41722;DHT22;27407;24.142;-110.310;2024-01-10T00:24:22;19.40;99.90
41722;DHT22;27407;24.142;-110.310;2024-01-10T00:26:49;19.20;99.90
41722;DHT22;27407;24.142;-110.310;2024-01-10T00:29:15;19.20;99.90
41722;DHT22;27407;24.142;-110.310;2024-01-10T00:31:42;19.30;99.90
41722;DHT22;27407;24.142;-110.310;2024-01-10T00:34:09;19.20;99.90
41722;DHT22;27407;24.142;-110.310;2024-01-10T00:36:35;19.10;99.90
41722;DHT22;27407;24.142;-110.310;2024-01-10T00:39:02;18.90;99.90
41722;DHT22;27407;24.142;-110.310;2024-01-10T00:41:28;19.00;99.90
41722;DHT22;27407;24.142;-110.310;2024-01-10T00:43:55;18.80;99.90
41722;DHT22;27407;24.142;-110.310;2024-01-10T00:46:22;18.70;99.90
41722;DHT22;27407;24.142;-110.310;2024-01-10T00:48:48;18.70;99.90
41722;DHT22;27407;24.142;-110.310;2024-01-10T00:51:15;18.70;99.90
41722;DHT22;27407;24.142;-110.310;2024-01-10T00:53:41;18.70;99.90
41722;DHT22;27407;24.142;-110.310;2024-01-10T00:56:08;18.60;99.90
41722;DHT22;27407;24.142;-110.310;2024-01-10T00:58:36;18.50;99.90
41722;DHT22;27407;24.142;-110.310;2024-01-10T01:01:02;18.40;99.90
41722;DHT22;27407;24.142;-110.310;2024-01-10T01:03:29;18.50;99.90
41722;DHT22;27407;24.142;-110.310;2024-01-10T01:05:55;18.40;99.90
41722;DHT22;27407;24.142;-110.310;2024-01-10T01:08:22;18.50;99.90
41722;DHT22;27407;24.142;-110.310;2024-01-10T01:10:49;18.30;99.90
41722;DHT22;27407;24.142;-110.310;2024-01-10T01:13:15;18.20;99.90
41722;DHT22;27407;24.142;-110.310;2024-01-10T01:15:43;18.40;99.90
41722;DHT22;27407;24.142;-110.310;2024-01-10T01:18:09;18.30;99.90
41722;DHT22;27407;24.142;-110.310;2024-01-10T01:20:38;18.10;99.90
41722;DHT22;27407;24.142;-110.310;2024-01-10T01:23:05;18.10;99.90
41722;DHT22;27407;24.142;-110.310;2024-01-10T01:25:31;18.30;99.90
41722;DHT22;27407;24.142;-110.310;2024-01-10T01:28:01;18.00;99.90
41722;DHT22;27407;24.142;-110.310;2024-01-10T01:30:28;18.00;99.90
41722;DHT22;27407;24.142;-110.310;2024-01-10T01:32:54;18.00;99.90
41722;DHT22;27407;24.142;-110.310;2024-01-10T01:35:21;18.10;99.90
41722;DHT22;27407;24.142;-110.310;2024-01-10T01:37:48;18.10;99.90
41722;DHT22;27407;24.142;-110.310;2024-01-10T01:40:15;18.10;99.90
41722;DHT22;27407;24.142;-110.310;2024-01-10T01:42:46;18.00;99.90
41722;DHT22;27407;24.142;-110.310;2024-01-10T01:45:14;17.80;99.90
41722;DHT22;27407;24.142;-110.310;2024-01-10T01:47:41;17.80;99.90
41722;DHT22;27407;24.142;-110.310;2024-01-10T01:50:08;17.80;99.90
41722;DHT22;27407;24.142;-110.310;2024-01-10T01:52:35;17.70;99.90
41722;DHT22;27407;24.142;-110.310;2024-01-10T01:55:03;17.60;99.90
41722;DHT22;27407;24.142;-110.310;2024-01-10T01:57:31;17.60;99.90
41722;DHT22;27407;24.142;-110.310;2024-01-10T01:59:58;17.60;99.90
41722;DHT22;27407;24.142;-110.310;2024-01-10T02:02:25;17.50;99.90
41722;DHT22;27407;24.142;-110.310;2024-01-10T02:04:52;17.50;99.90
41722;DHT22;27407;24.142;-110.310;2024-01-10T02:07:18;17.40;99.90
41722;DHT22;27407;24.142;-110.310;2024-01-10T02:09:45;17.40;99.90
41722;DHT22;27407;24.142;-110.310;2024-01-10T02:12:12;17.50;99.90
41722;DHT22;27407;24.142;-110.310;2024-01-10T02:14:39;17.40;99.90
41722;DHT22;27407;24.142;-110.310;2024-01-10T02:17:06;17.40;99.90
41722;DHT22;27407;24.142;-110.310;2024-01-10T02:19:33;17.30;99.90
41722;DHT22;27407;24.142;-110.310;2024-01-10T02:22:00;17.30;99.90
41722;DHT22;27407;24.142;-110.310;2024-01-10T02:24:28;17.40;99.90
41722;DHT22;27407;24.142;-110.310;2024-01-10T02:26:56;17.30;99.90
41722;DHT22;27407;24.142;-110.310;2024-01-10T02:29:22;17.30;99.90
41722;DHT22;27407;24.142;-110.310;2024-01-10T02:31:50;17.30;99.90
41722;DHT22;27407;24.142;-110.310;2024-01-10T02:34:16;17.30;99.90
41722;DHT22;27407;24.142;-110.310;2024-01-10T02:36:43;17.20;99.90
41722;DHT22;27407;24.142;-110.310;2024-01-10T02:39:10;17.20;99.90
41722;DHT22;27407;24.142;-110.310;2024-01-10T02:41:37;17.20;99.90
41722;DHT22;27407;24.142;-110.310;2024-01-10T02:44:03;17.10;99.90
41722;DHT22;27407;24.142;-110.310;2024-01-10T02:46:30;17.10;99.90
41722;DHT22;27407;24.142;-110.310;2024-01-10T02:48:57;17.10;99.90
41722;DHT22;27407;24.142;-110.310;2024-01-10T02:51:26;17.10;99.90
41722;DHT22;27407;24.142;-110.310;2024-01-10T02:53:53;17.00;99.90
41722;DHT22;27407;24.142;-110.310;2024-01-10T02:56:20;17.10;99.90
41722;DHT22;27407;24.142;-110.310;2024-01-10T02:58:46;17.10;99.90
41722;DHT22;27407;24.142;-110.310;2024-01-10T03:01:14;17.10;99.90
41722;DHT22;27407;24.142;-110.310;2024-01-10T03:03:41;17.00;99.90
41722;DHT22;27407;24.142;-110.310;2024-01-10T03:06:08;17.10;99.90
41722;DHT22;27407;24.142;-110.310;2024-01-10T03:08:34;17.00;99.90
41722;DHT22;27407;24.142;-110.310;2024-01-10T03:11:01;16.90;99.90
41722;DHT22;27407;24.142;-110.310;2024-01-10T03:13:28;16.90;99.90
41722;DHT22;27407;24.142;-110.310;2024-01-10T03:15:54;16.80;99.90
41722;DHT22;27407;24.142;-110.310;2024-01-10T03:18:21;16.70;99.90
41722;DHT22;27407;24.142;-110.310;2024-01-10T03:20:47;16.90;99.90
41722;DHT22;27407;24.142;-110.310;2024-01-10T03:23:14;16.80;99.90
41722;DHT22;27407;24.142;-110.310;2024-01-10T03:25:41;16.80;99.90
41722;DHT22;27407;24.142;-110.310;2024-01-10T03:28:07;16.80;99.90
41722;DHT22;27407;24.142;-110.310;2024-01-10T03:30:34;16.80;99.90
41722;DHT22;27407;24.142;-110.310;2024-01-10T03:33:01;16.80;99.90
41722;DHT22;27407;24.142;-110.310;2024-01-10T03:35:28;16.80;99.90
41722;DHT22;27407;24.142;-110.310;2024-01-10T03:37:54;16.70;99.90
41722;DHT22;27407;24.142;-110.310;2024-01-10T03:40:21;16.70;99.90
41722;DHT22;27407;24.142;-110.310;2024-01-10T03:42:47;16.70;99.90
41722;DHT22;27407;24.142;-110.310;2024-01-10T03:45:14;16.70;99.90
41722;DHT22;27407;24.142;-110.310;2024-01-10T03:47:43;16.60;99.90
41722;DHT22;27407;24.142;-110.310;2024-01-10T03:50:10;16.60;99.90
41722;DHT22;27407;24.142;-110.310;2024-01-10T03:52:36;16.60;99.90
41722;DHT22;27407;24.142;-110.310;2024-01-10T03:55:03;16.60;99.90
41722;DHT22;27407;24.142;-110.310;2024-01-10T03:57:30;16.50;99.90
41722;DHT22;27407;24.142;-110.310;2024-01-10T03:59:56;16.50;99.90
41722;DHT22;27407;24.142;-110.310;2024-01-10T04:02:23;16.40;99.90
41722;DHT22;27407;24.142;-110.310;2024-01-10T04:04:50;16.30;99.90
41722;DHT22;27407;24.142;-110.310;2024-01-10T04:07:16;16.30;99.90
41722;DHT22;27407;24.142;-110.310;2024-01-10T04:09:43;16.20;99.90
41722;DHT22;27407;24.142;-110.310;2024-01-10T04:12:10;16.20;99.90
41722;DHT22;27407;24.142;-110.310;2024-01-10T04:14:37;16.20;99.90
41722;DHT22;27407;24.142;-110.310;2024-01-10T04:17:03;16.10;99.90
41722;DHT22;27407;24.142;-110.310;2024-01-10T04:19:31;16.10;99.90
41722;DHT22;27407;24.142;-110.310;2024-01-10T04:21:58;16.00;99.90
41722;DHT22;27407;24.142;-110.310;2024-01-10T04:24:24;16.00;99.90
41722;DHT22;27407;24.142;-110.310;2024-01-10T04:26:51;15.90;99.90
41722;DHT22;27407;24.142;-110.310;2024-01-10T04:29:17;15.90;99.90
41722;DHT22;27407;24.142;-110.310;2024-01-10T04:31:44;15.90;99.90
41722;DHT22;27407;24.142;-110.310;2024-01-10T04:34:11;15.80;99.90
41722;DHT22;27407;24.142;-110.310;2024-01-10T04:36:37;15.70;99.90
41722;DHT22;27407;24.142;-110.310;2024-01-10T04:39:04;15.70;99.90
41722;DHT22;27407;24.142;-110.310;2024-01-10T04:41:31;15.60;99.90
41722;DHT22;27407;24.142;-110.310;2024-01-10T04:43:57;15.60;99.90
41722;DHT22;27407;24.142;-110.310;2024-01-10T04:46:24;15.50;99.90
41722;DHT22;27407;24.142;-110.310;2024-01-10T04:48:51;15.50;99.90
41722;DHT22;27407;24.142;-110.310;2024-01-10T04:51:17;15.50;99.90
41722;DHT22;27407;24.142;-110.310;2024-01-10T04:53:44;15.50;99.90
41722;DHT22;27407;24.142;-110.310;2024-01-10T04:56:11;15.40;99.90
41722;DHT22;27407;24.142;-110.310;2024-01-10T04:58:37;15.30;99.90
41722;DHT22;27407;24.142;-110.310;2024-01-10T05:01:04;15.30;99.90
41722;DHT22;27407;24.142;-110.310;2024-01-10T05:03:31;15.30;99.90
41722;DHT22;27407;24.142;-110.310;2024-01-10T05:05:57;15.30;99.90
41722;DHT22;27407;24.142;-110.310;2024-01-10T05:08:24;15.20;99.90
41722;DHT22;27407;24.142;-110.310;2024-01-10T05:10:52;15.20;99.90
41722;DHT22;27407;24.142;-110.310;2024-01-10T05:13:18;15.20;99.90
41722;DHT22;27407;24.142;-110.310;2024-01-10T05:15:45;15.20;99.90
41722;DHT22;27407;24.142;-110.310;2024-01-10T05:18:12;15.10;99.90
41722;DHT22;27407;24.142;-110.310;2024-01-10T05:20:38;15.10;99.90
41722;DHT22;27407;24.142;-110.310;2024-01-10T05:23:05;15.10;99.90
41722;DHT22;27407;24.142;-110.310;2024-01-10T05:25:32;15.10;99.90
41722;DHT22;27407;24.142;-110.310;2024-01-10T05:27:58;15.00;99.90
41722;DHT22;27407;24.142;-110.310;2024-01-10T05:30:25;15.00;99.90
41722;DHT22;27407;24.142;-110.310;2024-01-10T05:32:51;15.00;99.90
41722;DHT22;27407;24.142;-110.310;2024-01-10T05:35:18;14.90;99.90
41722;DHT22;27407;24.142;-110.310;2024-01-10T05:37:45;14.90;99.90
41722;DHT22;27407;24.142;-110.310;2024-01-10T05:40:12;14.80;99.90
41722;DHT22;27407;24.142;-110.310;2024-01-10T05:42:39;14.80;99.90
41722;DHT22;27407;24.142;-110.310;2024-01-10T05:45:06;14.70;99.90
41722;DHT22;27407;24.142;-110.310;2024-01-10T05:47:32;14.60;99.90
41722;DHT22;27407;24.142;-110.310;2024-01-10T05:49:59;14.60;99.90
41722;DHT22;27407;24.142;-110.310;2024-01-10T05:52:26;14.60;99.90
41722;DHT22;27407;24.142;-110.310;2024-01-10T05:54:53;14.50;99.90
41722;DHT22;27407;24.142;-110.310;2024-01-10T05:57:19;14.50;99.90
41722;DHT22;27407;24.142;-110.310;2024-01-10T05:59:47;14.50;99.90
41722;DHT22;27407;24.142;-110.310;2024-01-10T06:02:14;14.50;99.90
41722;DHT22;27407;24.142;-110.310;2024-01-10T06:04:42;14.40;99.90
41722;DHT22;27407;24.142;-110.310;2024-01-10T06:07:09;14.40;99.90
41722;DHT22;27407;24.142;-110.310;2024-01-10T06:09:36;14.50;99.90
41722;DHT22;27407;24.142;-110.310;2024-01-10T06:12:03;14.50;99.90
41722;DHT22;27407;24.142;-110.310;2024-01-10T06:14:29;14.50;99.90
41722;DHT22;27407;24.142;-110.310;2024-01-10T06:16:57;14.40;99.90
41722;DHT22;27407;24.142;-110.310;2024-01-10T06:19:25;14.40;99.90
41722;DHT22;27407;24.142;-110.310;2024-01-10T06:21:52;14.40;99.90
41722;DHT22;27407;24.142;-110.310;2024-01-10T06:24:19;14.40;99.90
41722;DHT22;27407;24.142;-110.310;2024-01-10T06:26:46;14.40;99.90
41722;DHT22;27407;24.142;-110.310;2024-01-10T06:29:13;14.40;99.90
41722;DHT22;27407;24.142;-110.310;2024-01-10T06:31:39;14.40;99.90
41722;DHT22;27407;24.142;-110.310;2024-01-10T06:34:06;14.30;99.90
41722;DHT22;27407;24.142;-110.310;2024-01-10T06:36:32;14.30;99.90
41722;DHT22;27407;24.142;-110.310;2024-01-10T06:38:59;14.30;99.90
41722;DHT22;27407;24.142;-110.310;2024-01-10T06:41:26;14.30;99.90
41722;DHT22;27407;24.142;-110.310;2024-01-10T06:43:52;14.30;99.90
41722;DHT22;27407;24.142;-110.310;2024-01-10T06:46:20;14.20;99.90
41722;DHT22;27407;24.142;-110.310;2024-01-10T06:48:47;14.20;99.90
41722;DHT22;27407;24.142;-110.310;2024-01-10T06:51:14;14.20;99.90
41722;DHT22;27407;24.142;-110.310;2024-01-10T06:53:41;14.20;99.90
41722;DHT22;27407;24.142;-110.310;2024-01-10T06:56:09;14.20;99.90
41722;DHT22;27407;24.142;-110.310;2024-01-10T06:58:36;14.30;99.90
41722;DHT22;27407;24.142;-110.310;2024-01-10T07:01:02;14.20;99.90
41722;DHT22;27407;24.142;-110.310;2024-01-10T07:03:32;14.30;99.90
41722;DHT22;27407;24.142;-110.310;2024-01-10T07:06:00;14.20;99.90
41722;DHT22;27407;24.142;-110.310;2024-01-10T07:08:27;14.30;99.90
41722;DHT22;27407;24.142;-110.310;2024-01-10T07:10:54;14.30;99.90
41722;DHT22;27407;24.142;-110.310;2024-01-10T07:13:21;14.30;99.90
41722;DHT22;27407;24.142;-110.310;2024-01-10T07:15:48;14.30;99.90
41722;DHT22;27407;24.142;-110.310;2024-01-10T07:18:17;14.30;99.90
41722;DHT22;27407;24.142;-110.310;2024-01-10T07:20:44;14.30;99.90
41722;DHT22;27407;24.142;-110.310;2024-01-10T07:23:10;14.30;99.90
41722;DHT22;27407;24.142;-110.310;2024-01-10T07:25:37;14.30;99.90
41722;DHT22;27407;24.142;-110.310;2024-01-10T07:28:04;14.30;99.90
41722;DHT22;27407;24.142;-110.310;2024-01-10T07:30:31;14.30;99.90
41722;DHT22;27407;24.142;-110.310;2024-01-10T07:32:59;14.30;99.90
41722;DHT22;27407;24.142;-110.310;2024-01-10T07:35:25;14.30;99.90
41722;DHT22;27407;24.142;-110.310;2024-01-10T07:37:53;14.20;99.90
41722;DHT22;27407;24.142;-110.310;2024-01-10T07:40:20;14.20;99.90
41722;DHT22;27407;24.142;-110.310;2024-01-10T07:42:48;14.20;99.90
41722;DHT22;27407;24.142;-110.310;2024-01-10T07:45:15;14.10;99.90
41722;DHT22;27407;24.142;-110.310;2024-01-10T07:47:42;14.10;99.90
41722;DHT22;27407;24.142;-110.310;2024-01-10T07:50:10;14.00;99.90
41722;DHT22;27407;24.142;-110.310;2024-01-10T07:52:40;14.00;99.90
41722;DHT22;27407;24.142;-110.310;2024-01-10T07:55:07;14.00;99.90
41722;DHT22;27407;24.142;-110.310;2024-01-10T07:57:34;14.00;99.90
41722;DHT22;27407;24.142;-110.310;2024-01-10T08:00:06;13.90;99.90
41722;DHT22;27407;24.142;-110.310;2024-01-10T08:02:39;13.80;99.90
41722;DHT22;27407;24.142;-110.310;2024-01-10T08:05:06;13.70;99.90
41722;DHT22;27407;24.142;-110.310;2024-01-10T08:07:37;13.70;99.90
41722;DHT22;27407;24.142;-110.310;2024-01-10T08:10:09;13.70;99.90
41722;DHT22;27407;24.142;-110.310;2024-01-10T08:12:36;13.70;99.90
41722;DHT22;27407;24.142;-110.310;2024-01-10T08:15:05;13.60;99.90
41722;DHT22;27407;24.142;-110.310;2024-01-10T08:17:34;13.40;99.90
41722;DHT22;27407;24.142;-110.310;2024-01-10T08:20:05;13.40;99.90
41722;DHT22;27407;24.142;-110.310;2024-01-10T08:22:32;13.30;99.90
41722;DHT22;27407;24.142;-110.310;2024-01-10T08:24:59;13.20;99.90
41722;DHT22;27407;24.142;-110.310;2024-01-10T08:27:25;13.20;99.90
41722;DHT22;27407;24.142;-110.310;2024-01-10T08:29:52;13.20;99.90
41722;DHT22;27407;24.142;-110.310;2024-01-10T08:32:19;13.20;99.90
41722;DHT22;27407;24.142;-110.310;2024-01-10T08:34:48;13.20;99.90
41722;DHT22;27407;24.142;-110.310;2024-01-10T08:37:15;13.20;99.90
41722;DHT22;27407;24.142;-110.310;2024-01-10T08:39:43;13.20;99.90
41722;DHT22;27407;24.142;-110.310;2024-01-10T08:42:13;13.20;99.90
41722;DHT22;27407;24.142;-110.310;2024-01-10T08:44:39;13.20;99.90
41722;DHT22;27407;24.142;-110.310;2024-01-10T08:47:06;13.20;99.90
41722;DHT22;27407;24.142;-110.310;2024-01-10T08:49:33;13.00;99.90
41722;DHT22;27407;24.142;-110.310;2024-01-10T08:51:59;12.90;99.90
41722;DHT22;27407;24.142;-110.310;2024-01-10T08:54:26;12.90;99.90
41722;DHT22;27407;24.142;-110.310;2024-01-10T08:56:53;12.90;99.90
41722;DHT22;27407;24.142;-110.310;2024-01-10T08:59:19;12.90;99.90
41722;DHT22;27407;24.142;-110.310;2024-01-10T09:01:46;12.90;99.90
41722;DHT22;27407;24.142;-110.310;2024-01-10T09:04:12;12.90;99.90
41722;DHT22;27407;24.142;-110.310;2024-01-10T09:06:39;12.90;99.90
41722;DHT22;27407;24.142;-110.310;2024-01-10T09:09:06;12.90;99.90
41722;DHT22;27407;24.142;-110.310;2024-01-10T09:11:33;12.90;99.90
41722;DHT22;27407;24.142;-110.310;2024-01-10T09:14:00;12.90;99.90
41722;DHT22;27407;24.142;-110.310;2024-01-10T09:16:27;12.90;99.90
41722;DHT22;27407;24.142;-110.310;2024-01-10T09:18:53;12.90;99.90
41722;DHT22;27407;24.142;-110.310;2024-01-10T09:21:23;12.80;99.90
41722;DHT22;27407;24.142;-110.310;2024-01-10T09:23:51;12.80;99.90
41722;DHT22;27407;24.142;-110.310;2024-01-10T09:26:18;12.70;99.90
41722;DHT22;27407;24.142;-110.310;2024-01-10T09:28:44;12.70;99.90
41722;DHT22;27407;24.142;-110.310;2024-01-10T09:31:11;12.70;99.90
41722;DHT22;27407;24.142;-110.310;2024-01-10T09:33:38;12.70;99.90
41722;DHT22;27407;24.142;-110.310;2024-01-10T09:36:05;12.70;99.90
41722;DHT22;27407;24.142;-110.310;2024-01-10T09:38:36;12.70;99.90
41722;DHT22;27407;24.142;-110.310;2024-01-10T09:41:05;12.70;99.90
41722;DHT22;27407;24.142;-110.310;2024-01-10T09:43:32;12.70;99.90
41722;DHT22;27407;24.142;-110.310;2024-01-10T09:46:02;12.70;99.90
41722;DHT22;27407;24.142;-110.310;2024-01-10T09:48:29;12.70;99.90
41722;DHT22;27407;24.142;-110.310;2024-01-10T09:50:56;12.60;99.90
41722;DHT22;27407;24.142;-110.310;2024-01-10T09:53:25;12.50;99.90
41722;DHT22;27407;24.142;-110.310;2024-01-10T09:55:53;12.50;99.90
41722;DHT22;27407;24.142;-110.310;2024-01-10T09:58:26;12.60;99.90
41722;DHT22;27407;24.142;-110.310;2024-01-10T10:00:53;12.60;99.90
41722;DHT22;27407;24.142;-110.310;2024-01-10T10:03:20;12.70;99.90
41722;DHT22;27407;24.142;-110.310;2024-01-10T10:05:46;12.70;99.90
41722;DHT22;27407;24.142;-110.310;2024-01-10T10:08:14;12.80;99.90
41722;DHT22;27407;24.142;-110.310;2024-01-10T10:10:42;12.80;99.90
41722;DHT22;27407;24.142;-110.310;2024-01-10T10:13:27;12.80;99.90
41722;DHT22;27407;24.142;-110.310;2024-01-10T10:16:04;12.70;99.90
41722;DHT22;27407;24.142;-110.310;2024-01-10T10:18:32;12.60;99.90
41722;DHT22;27407;24.142;-110.310;2024-01-10T10:21:12;12.60;99.90
41722;DHT22;27407;24.142;-110.310;2024-01-10T10:23:40;12.60;99.90
41722;DHT22;27407;24.142;-110.310;2024-01-10T10:26:18;12.60;99.90
41722;DHT22;27407;24.142;-110.310;2024-01-10T10:28:48;12.50;99.90
41722;DHT22;27407;24.142;-110.310;2024-01-10T10:31:16;12.50;99.90
41722;DHT22;27407;24.142;-110.310;2024-01-10T10:33:48;12.40;99.90
41722;DHT22;27407;24.142;-110.310;2024-01-10T10:36:14;12.40;99.90
41722;DHT22;27407;24.142;-110.310;2024-01-10T10:38:41;12.30;99.90
41722;DHT22;27407;24.142;-110.310;2024-01-10T10:41:08;12.30;99.90
41722;DHT22;27407;24.142;-110.310;2024-01-10T10:43:39;12.20;99.90
41722;DHT22;27407;24.142;-110.310;2024-01-10T10:46:08;12.20;99.90
41722;DHT22;27407;24.142;-110.310;2024-01-10T10:48:43;12.20;99.90
41722;DHT22;27407;24.142;-110.310;2024-01-10T10:54:08;12.10;99.90
41722;DHT22;27407;24.142;-110.310;2024-01-10T10:56:36;12.00;99.90
41722;DHT22;27407;24.142;-110.310;2024-01-10T10:59:04;12.00;99.90
41722;DHT22;27407;24.142;-110.310;2024-01-10T11:01:32;11.90;99.90
41722;DHT22;27407;24.142;-110.310;2024-01-10T11:03:59;11.90;99.90
41722;DHT22;27407;24.142;-110.310;2024-01-10T11:06:27;11.90;99.90
41722;DHT22;27407;24.142;-110.310;2024-01-10T11:09:00;11.90;99.90
41722;DHT22;27407;24.142;-110.310;2024-01-10T11:14:35;11.60;99.90
41722;DHT22;27407;24.142;-110.310;2024-01-10T11:25:16;11.60;99.90
41722;DHT22;27407;24.142;-110.310;2024-01-10T11:27:44;11.60;99.90
41722;DHT22;27407;24.142;-110.310;2024-01-10T11:30:12;11.60;99.90
41722;DHT22;27407;24.142;-110.310;2024-01-10T11:32:38;11.70;99.90
41722;DHT22;27407;24.142;-110.310;2024-01-10T11:35:11;11.70;99.90
41722;DHT22;27407;24.142;-110.310;2024-01-10T11:37:44;11.60;99.90
41722;DHT22;27407;24.142;-110.310;2024-01-10T11:40:14;11.50;99.90
41722;DHT22;27407;24.142;-110.310;2024-01-10T11:42:44;11.50;99.90
41722;DHT22;27407;24.142;-110.310;2024-01-10T11:47:57;11.40;99.90
41722;DHT22;27407;24.142;-110.310;2024-01-10T11:50:24;11.40;99.90
41722;DHT22;27407;24.142;-110.310;2024-01-10T11:52:55;11.30;99.90
41722;DHT22;27407;24.142;-110.310;2024-01-10T11:55:49;11.30;99.90
41722;DHT22;27407;24.142;-110.310;2024-01-10T11:58:18;11.20;99.90
41722;DHT22;27407;24.142;-110.310;2024-01-10T12:00:45;11.20;99.90
41722;DHT22;27407;24.142;-110.310;2024-01-10T12:03:12;11.20;99.90
41722;DHT22;27407;24.142;-110.310;2024-01-10T12:05:39;11.20;99.90
41722;DHT22;27407;24.142;-110.310;2024-01-10T12:08:09;11.10;99.90
41722;DHT22;27407;24.142;-110.310;2024-01-10T12:10:36;11.10;99.90
41722;DHT22;27407;24.142;-110.310;2024-01-10T12:13:04;11.10;99.90
41722;DHT22;27407;24.142;-110.310;2024-01-10T12:15:31;11.10;99.90
41722;DHT22;27407;24.142;-110.310;2024-01-10T12:17:57;11.10;99.90
41722;DHT22;27407;24.142;-110.310;2024-01-10T12:20:24;11.20;99.90
41722;DHT22;27407;24.142;-110.310;2024-01-10T12:22:50;11.20;99.90
41722;DHT22;27407;24.142;-110.310;2024-01-10T12:25:18;11.20;99.90
41722;DHT22;27407;24.142;-110.310;2024-01-10T12:27:46;11.20;99.90
41722;DHT22;27407;24.142;-110.310;2024-01-10T12:30:12;11.20;99.90
41722;DHT22;27407;24.142;-110.310;2024-01-10T12:32:39;11.20;99.90
41722;DHT22;27407;24.142;-110.310;2024-01-10T12:35:06;11.10;99.90
41722;DHT22;27407;24.142;-110.310;2024-01-10T12:37:33;11.10;99.90
41722;DHT22;27407;24.142;-110.310;2024-01-10T12:40:00;11.00;99.90
41722;DHT22;27407;24.142;-110.310;2024-01-10T12:42:27;11.00;99.90
41722;DHT22;27407;24.142;-110.310;2024-01-10T12:44:53;10.90;99.90
41722;DHT22;27407;24.142;-110.310;2024-01-10T12:47:21;10.80;99.90
41722;DHT22;27407;24.142;-110.310;2024-01-10T12:49:48;10.70;99.90
41722;DHT22;27407;24.142;-110.310;2024-01-10T12:52:15;10.70;99.90
41722;DHT22;27407;24.142;-110.310;2024-01-10T12:54:45;10.80;99.90
41722;DHT22;27407;24.142;-110.310;2024-01-10T12:57:12;10.80;99.90
41722;DHT22;27407;24.142;-110.310;2024-01-10T12:59:38;10.90;99.90
41722;DHT22;27407;24.142;-110.310;2024-01-10T13:02:05;10.90;99.90
41722;DHT22;27407;24.142;-110.310;2024-01-10T13:04:32;10.90;99.90
41722;DHT22;27407;24.142;-110.310;2024-01-10T13:06:59;10.90;99.90
41722;DHT22;27407;24.142;-110.310;2024-01-10T13:09:26;10.90;99.90
41722;DHT22;27407;24.142;-110.310;2024-01-10T13:11:53;10.90;99.90
41722;DHT22;27407;24.142;-110.310;2024-01-10T13:14:20;10.90;99.90
41722;DHT22;27407;24.142;-110.310;2024-01-10T13:16:46;10.90;99.90
41722;DHT22;27407;24.142;-110.310;2024-01-10T13:19:13;10.90;99.90
41722;DHT22;27407;24.142;-110.310;2024-01-10T13:21:40;10.90;99.90
41722;DHT22;27407;24.142;-110.310;2024-01-10T13:24:07;10.80;99.90
41722;DHT22;27407;24.142;-110.310;2024-01-10T13:26:34;10.80;99.90
41722;DHT22;27407;24.142;-110.310;2024-01-10T13:29:00;10.80;99.90
41722;DHT22;27407;24.142;-110.310;2024-01-10T13:31:28;10.80;99.90
41722;DHT22;27407;24.142;-110.310;2024-01-10T13:33:55;10.80;99.90
41722;DHT22;27407;24.142;-110.310;2024-01-10T13:36:22;10.80;99.90
41722;DHT22;27407;24.142;-110.310;2024-01-10T13:38:48;10.90;99.90
41722;DHT22;27407;24.142;-110.310;2024-01-10T13:41:15;10.90;99.90
41722;DHT22;27407;24.142;-110.310;2024-01-10T13:43:42;11.00;99.90
41722;DHT22;27407;24.142;-110.310;2024-01-10T13:46:08;11.00;99.90
41722;DHT22;27407;24.142;-110.310;2024-01-10T13:48:35;11.00;99.90
41722;DHT22;27407;24.142;-110.310;2024-01-10T13:51:01;11.10;99.90
41722;DHT22;27407;24.142;-110.310;2024-01-10T13:53:28;11.10;99.90
41722;DHT22;27407;24.142;-110.310;2024-01-10T13:55:55;11.10;99.90
41722;DHT22;27407;24.142;-110.310;2024-01-10T13:58:21;11.20;99.90
41722;DHT22;27407;24.142;-110.310;2024-01-10T14:00:50;11.20;99.90
41722;DHT22;27407;24.142;-110.310;2024-01-10T14:03:16;11.40;99.90
41722;DHT22;27407;24.142;-110.310;2024-01-10T14:05:43;11.50;99.90
41722;DHT22;27407;24.142;-110.310;2024-01-10T14:08:10;11.60;99.90
41722;DHT22;27407;24.142;-110.310;2024-01-10T14:10:37;11.60;99.90
41722;DHT22;27407;24.142;-110.310;2024-01-10T14:13:05;11.70;99.90
41722;DHT22;27407;24.142;-110.310;2024-01-10T14:15:31;11.80;99.90
41722;DHT22;27407;24.142;-110.310;2024-01-10T14:17:58;11.70;99.90
41722;DHT22;27407;24.142;-110.310;2024-01-10T14:20:25;11.70;99.90
41722;DHT22;27407;24.142;-110.310;2024-01-10T14:22:51;11.70;99.90
41722;DHT22;27407;24.142;-110.310;2024-01-10T14:25:18;11.70;99.90
41722;DHT22;27407;24.142;-110.310;2024-01-10T14:27:46;11.70;99.90
41722;DHT22;27407;24.142;-110.310;2024-01-10T14:30:13;11.90;99.90
41722;DHT22;27407;24.142;-110.310;2024-01-10T14:32:45;12.00;99.90
41722;DHT22;27407;24.142;-110.310;2024-01-10T14:35:15;12.10;99.90
41722;DHT22;27407;24.142;-110.310;2024-01-10T14:37:41;12.10;99.90
41722;DHT22;27407;24.142;-110.310;2024-01-10T14:40:09;12.10;99.90
41722;DHT22;27407;24.142;-110.310;2024-01-10T14:42:36;12.10;99.90
41722;DHT22;27407;24.142;-110.310;2024-01-10T14:45:03;12.30;99.90
41722;DHT22;27407;24.142;-110.310;2024-01-10T14:47:30;12.20;99.90
41722;DHT22;27407;24.142;-110.310;2024-01-10T14:49:57;12.40;99.90
41722;DHT22;27407;24.142;-110.310;2024-01-10T14:52:25;12.50;99.90
41722;DHT22;27407;24.142;-110.310;2024-01-10T14:54:52;12.50;99.90
41722;DHT22;27407;24.142;-110.310;2024-01-10T14:57:19;12.60;99.90
41722;DHT22;27407;24.142;-110.310;2024-01-10T14:59:46;12.70;99.90
41722;DHT22;27407;24.142;-110.310;2024-01-10T15:02:15;12.70;99.90
41722;DHT22;27407;24.142;-110.310;2024-01-10T15:16:03;12.80;99.90
41722;DHT22;27407;24.142;-110.310;2024-01-10T15:18:30;13.50;99.90